Terminal Aerodrome Forecast
Issued by NWS

Home | Current Version | Previous Version | Graphics & Text | Print | Product List | Glossary On
Versions: 1 2 3 4 5 6 7 8 9 10 11 12 13 14 15 16 17 18 19 20 21 22 23 24 25 26 27 28 29 30 31 32 33 34
000
FTUS43 KLOT 150300 AAA
TAFORD
TAF AMD
KORD 150310Z 1503/1606 18008KT 2SM -DZ BR OVC002
     FM151400 17011KT 5SM BR OVC007
     FM151700 15012KT P6SM OVC012
      TEMPO 1518/1522 -SHRA
     FM152200 14010KT 3SM -DZRA BR OVC007=

USA.gov is the U.S. government's official web portal to all federal, state and local government web resources and services.